Time;durP1;ratioP1;P1;durP2;ratioP2;P2;SDS_P1;SDS_P2;PMS_P1;PMS_P2;Temp;Humidity;BMP_temperature;BMP_pressure;BME280_temperature;BME280_humidity;BME280_pressure;Samples;Min_cycle;Max_cycle;Signal;HPM_P1;HPM_P2
2022/02/25 00:00:19;;;;;;;0.75;0.43;;;6.10;84.60;;;;;;10052144;28;20446;-65
2022/02/25 00:05:10;;;;;;;8.15;1.23;;;6.00;84.50;;;;;;10052379;28;20041;-64
2022/02/25 00:10:01;;;;;;;4.45;1.00;;;6.00;84.30;;;;;;10051193;28;20029;-66
2022/02/25 00:14:53;;;;;;;3.50;0.52;;;5.90;84.20;;;;;;10051764;28;20054;-65
2022/02/25 00:19:44;;;;;;;1.60;0.77;;;5.90;84.20;;;;;;10039127;28;20446;-65
2022/02/25 00:24:35;;;;;;;2.30;0.52;;;5.80;84.10;;;;;;10047828;28;20063;-64
2022/02/25 00:29:25;;;;;;;1.60;0.52;;;5.80;83.90;;;;;;10050983;28;20018;-64
2022/02/25 00:34:16;;;;;;;1.17;0.43;;;5.80;83.80;;;;;;10051273;28;20115;-64
2022/02/25 00:39:07;;;;;;;3.00;1.52;;;5.80;83.80;;;;;;10046063;28;20220;-63
2022/02/25 00:43:58;;;;;;;4.72;0.88;;;5.90;83.70;;;;;;10047996;28;20522;-64
2022/02/25 00:48:49;;;;;;;5.78;0.63;;;5.80;83.70;;;;;;10046722;28;20025;-64
2022/02/25 00:53:40;;;;;;;1.08;0.90;;;5.80;83.70;;;;;;10050750;28;20037;-64
2022/02/25 00:58:31;;;;;;;2.35;0.57;;;5.80;83.60;;;;;;10047821;28;20033;-64
2022/02/25 01:03:21;;;;;;;1.35;0.38;;;5.80;83.50;;;;;;10045750;28;20033;-64
2022/02/25 01:08:12;;;;;;;2.33;0.50;;;5.70;83.50;;;;;;10049351;28;20037;-64
2022/02/25 01:13:03;;;;;;;2.72;0.55;;;5.70;83.50;;;;;;10048196;28;20049;-62
2022/02/25 01:17:54;;;;;;;3.63;0.82;;;5.80;83.60;;;;;;10047723;28;20503;-66
2022/02/25 01:22:45;;;;;;;1.17;0.47;;;5.80;83.40;;;;;;10045017;28;20026;-63
2022/02/25 01:27:36;;;;;;;4.18;0.98;;;5.80;83.20;;;;;;10044748;28;20045;-62
2022/02/25 01:32:26;;;;;;;1.05;0.52;;;5.80;83.20;;;;;;10045623;28;20455;-65
2022/02/25 01:37:17;;;;;;;0.98;0.40;;;5.80;83.30;;;;;;10042318;28;20600;-64
2022/02/25 01:42:08;;;;;;;3.13;1.17;;;5.70;83.30;;;;;;10048092;28;20468;-64
2022/02/25 01:47:04;;;;;;;1.92;0.63;;;5.70;83.30;;;;;;10041596;28;20072;-63
2022/02/25 01:52:00;;;;;;;1.80;0.73;;;5.70;83.40;;;;;;10042279;28;20017;-62
2022/02/25 01:56:53;;;;;;;1.85;0.75;;;5.60;83.40;;;;;;10046140;28;20021;-64
2022/02/25 02:01:44;;;;;;;3.13;0.90;;;5.50;83.50;;;;;;10047222;28;20029;-64
2022/02/25 02:06:36;;;;;;;1.30;0.80;;;5.50;83.60;;;;;;10046528;28;20520;-63
2022/02/25 02:11:33;;;;;;;0.93;0.47;;;5.50;83.70;;;;;;10045431;28;20049;-64
2022/02/25 02:16:24;;;;;;;0.95;0.65;;;5.40;83.80;;;;;;10048406;28;20053;-64
2022/02/25 02:21:15;;;;;;;5.63;0.70;;;5.50;83.80;;;;;;10047895;28;20030;-65
2022/02/25 02:26:06;;;;;;;1.27;0.65;;;5.40;83.90;;;;;;10043660;28;20559;-64
2022/02/25 02:30:56;;;;;;;1.38;0.63;;;5.40;83.80;;;;;;10045776;28;20108;-63
2022/02/25 02:35:49;;;;;;;0.90;0.55;;;5.30;84.10;;;;;;10045208;28;20103;-64
2022/02/25 02:40:39;;;;;;;3.85;0.68;;;5.20;84.90;;;;;;10042743;28;20036;-64
2022/02/25 02:45:30;;;;;;;2.88;0.75;;;5.20;84.50;;;;;;10043693;28;20040;-63
2022/02/25 02:50:21;;;;;;;8.10;0.85;;;5.20;84.50;;;;;;10046071;28;20112;-64
2022/02/25 02:55:12;;;;;;;1.45;0.82;;;5.20;84.40;;;;;;10044856;28;20075;-63
2022/02/25 03:00:04;;;;;;;2.00;0.98;;;5.00;84.60;;;;;;10045615;28;20094;-65
2022/02/25 03:04:56;;;;;;;3.30;2.38;;;5.10;84.80;;;;;;10044395;28;20049;-64
2022/02/25 03:09:46;;;;;;;4.13;0.95;;;5.00;85.00;;;;;;10047235;28;20029;-64
2022/02/25 03:14:37;;;;;;;3.42;0.70;;;5.00;84.90;;;;;;10050353;28;20532;-63
2022/02/25 03:19:28;;;;;;;0.88;0.68;;;5.00;84.90;;;;;;10050333;28;20041;-64
2022/02/25 03:24:19;;;;;;;2.28;0.65;;;5.00;84.70;;;;;;10054527;28;20036;-64
2022/02/25 03:29:10;;;;;;;2.65;0.77;;;5.00;84.80;;;;;;10051498;28;20143;-65
2022/02/25 03:34:01;;;;;;;2.70;0.73;;;5.00;84.90;;;;;;10042987;28;20052;-65
2022/02/25 03:38:51;;;;;;;4.25;0.70;;;5.00;85.00;;;;;;10041691;28;20107;-63
2022/02/25 03:43:42;;;;;;;2.80;0.73;;;5.00;85.10;;;;;;10051333;28;20018;-65
2022/02/25 03:48:32;;;;;;;2.65;0.95;;;4.90;85.20;;;;;;10063749;28;20041;-64
2022/02/25 03:53:23;;;;;;;1.38;0.57;;;4.90;85.10;;;;;;10042859;28;20101;-62
2022/02/25 03:58:14;;;;;;;0.63;0.60;;;4.80;85.50;;;;;;10051084;28;20025;-63
2022/02/25 04:03:04;;;;;;;2.22;0.80;;;4.80;85.70;;;;;;10048165;28;20209;-64
2022/02/25 04:07:55;;;;;;;3.63;1.83;;;4.80;85.60;;;;;;10046744;28;20041;-63
2022/02/25 04:12:46;;;;;;;1.17;0.68;;;4.80;85.50;;;;;;10047222;28;20049;-64
2022/02/25 04:17:37;;;;;;;4.53;0.80;;;4.70;86.00;;;;;;10049587;28;20044;-64
2022/02/25 04:22:28;;;;;;;1.17;0.98;;;4.60;86.40;;;;;;10049324;28;20013;-64
2022/02/25 04:27:18;;;;;;;1.75;0.85;;;4.70;85.80;;;;;;10047472;28;20053;-64
2022/02/25 04:32:09;;;;;;;3.60;0.90;;;4.70;86.10;;;;;;10045264;28;20018;-64
2022/02/25 04:37:00;;;;;;;5.65;1.02;;;4.70;86.10;;;;;;10049006;28;20193;-63
2022/02/25 04:41:51;;;;;;;1.90;1.00;;;4.60;86.40;;;;;;10048329;28;20492;-64
2022/02/25 04:46:41;;;;;;;1.33;0.80;;;4.70;86.70;;;;;;10047545;28;20450;-63
2022/02/25 04:51:33;;;;;;;0.85;0.75;;;4.70;86.60;;;;;;10040793;28;20076;-63
2022/02/25 04:56:23;;;;;;;3.85;1.30;;;4.70;86.60;;;;;;10046047;28;20032;-63
2022/02/25 05:01:14;;;;;;;3.35;0.98;;;4.80;86.60;;;;;;10044856;28;20555;-63
2022/02/25 05:06:05;;;;;;;1.58;0.75;;;4.80;86.70;;;;;;10045017;28;20059;-63
2022/02/25 05:10:57;;;;;;;3.17;0.60;;;4.80;86.80;;;;;;10049406;28;20388;-64
2022/02/25 05:20:56;;;;;;;1.98;0.93;;;4.70;86.70;;;;;;10047174;28;20036;-64
2022/02/25 05:25:47;;;;;;;2.15;0.98;;;4.70;86.80;;;;;;10047790;28;20292;-62
2022/02/25 05:30:40;;;;;;;3.28;1.10;;;4.60;86.70;;;;;;10046699;28;20040;-65
2022/02/25 05:35:30;;;;;;;1.38;0.82;;;4.60;86.90;;;;;;10045904;28;20021;-65
2022/02/25 05:40:22;;;;;;;2.92;0.93;;;4.50;86.90;;;;;;10038613;28;20112;-62
2022/02/25 05:45:14;;;;;;;4.82;0.98;;;4.60;87.00;;;;;;10047574;28;20033;-64
2022/02/25 05:50:08;;;;;;;4.40;0.82;;;4.60;87.00;;;;;;10045721;28;20010;-63
2022/02/25 05:54:58;;;;;;;1.80;1.05;;;4.60;87.00;;;;;;10045988;28;20056;-64
2022/02/25 05:59:49;;;;;;;1.45;0.68;;;4.50;86.80;;;;;;10031201;28;20504;-67
2022/02/25 06:04:40;;;;;;;1.20;0.65;;;4.50;87.00;;;;;;10045388;28;20259;-63
2022/02/25 06:09:30;;;;;;;2.20;1.00;;;4.50;87.20;;;;;;10044958;28;20496;-63
2022/02/25 06:14:21;;;;;;;2.50;0.70;;;4.50;87.60;;;;;;10044550;28;20128;-64
2022/02/25 06:19:12;;;;;;;7.68;1.50;;;4.50;87.20;;;;;;10043931;28;20029;-65
2022/02/25 06:24:03;;;;;;;3.70;1.20;;;4.40;87.30;;;;;;10045541;28;20029;-64
2022/02/25 06:28:54;;;;;;;2.03;0.63;;;4.40;87.10;;;;;;10043574;28;20045;-64
2022/02/25 06:33:45;;;;;;;1.88;0.77;;;4.40;87.10;;;;;;10040884;28;20117;-63
2022/02/25 06:38:35;;;;;;;1.23;0.60;;;4.40;87.10;;;;;;10037907;28;20116;-64
2022/02/25 06:43:26;;;;;;;4.90;1.15;;;4.60;87.20;;;;;;10046008;28;20021;-63
2022/02/25 06:48:17;;;;;;;0.88;0.60;;;4.50;87.10;;;;;;10053395;28;20098;-64
2022/02/25 06:53:08;;;;;;;5.82;1.60;;;4.60;87.40;;;;;;10051166;28;20026;-63
2022/02/25 06:58:00;;;;;;;0.88;0.40;;;4.70;87.30;;;;;;10052423;28;20061;-64
2022/02/25 07:02:51;;;;;;;1.38;0.95;;;4.70;87.00;;;;;;10048146;28;20029;-64
2022/02/25 07:07:42;;;;;;;1.08;0.65;;;4.70;87.00;;;;;;10048238;28;20125;-63
2022/02/25 07:12:33;;;;;;;3.30;0.93;;;4.80;87.20;;;;;;10050282;28;20128;-63
2022/02/25 07:17:25;;;;;;;3.40;1.10;;;4.80;87.10;;;;;;10052336;28;20406;-64
2022/02/25 07:22:15;;;;;;;5.13;1.30;;;4.80;87.10;;;;;;10039852;28;20359;-64
2022/02/25 07:27:07;;;;;;;1.95;1.25;;;4.90;87.00;;;;;;10053426;28;20049;-63
2022/02/25 07:31:57;;;;;;;2.45;1.17;;;5.00;87.00;;;;;;10049468;28;20114;-64
2022/02/25 07:36:48;;;;;;;3.55;1.10;;;4.90;87.10;;;;;;10047573;28;20535;-62
2022/02/25 07:41:39;;;;;;;5.85;0.77;;;5.10;86.90;;;;;;10036619;28;20061;-62
2022/02/25 07:46:30;;;;;;;2.53;1.30;;;5.20;86.90;;;;;;10030946;28;20042;-62
2022/02/25 07:51:20;;;;;;;6.28;1.95;;;5.30;86.70;;;;;;10029534;28;20589;-62
2022/02/25 07:56:11;;;;;;;3.40;1.08;;;5.30;86.80;;;;;;10032263;28;20036;-62
2022/02/25 08:01:02;;;;;;;2.22;0.90;;;5.30;86.90;;;;;;10032490;28;20054;-63
2022/02/25 08:05:53;;;;;;;2.10;0.90;;;5.40;86.90;;;;;;10035667;28;20041;-64
2022/02/25 08:10:43;;;;;;;2.88;1.50;;;5.50;86.70;;;;;;10034785;28;20022;-62
2022/02/25 08:15:35;;;;;;;4.22;1.48;;;5.50;86.80;;;;;;10033806;28;20059;-61
2022/02/25 08:20:25;;;;;;;4.43;1.30;;;5.50;86.80;;;;;;10031375;28;20121;-63
2022/02/25 08:25:16;;;;;;;6.00;2.13;;;5.50;86.80;;;;;;10027046;28;20120;-62
2022/02/25 08:30:14;;;;;;;4.90;1.45;;;5.80;86.40;;;;;;10036590;28;20029;-62
2022/02/25 08:35:07;;;;;;;2.35;1.05;;;6.00;86.30;;;;;;10034062;28;20065;-63
2022/02/25 08:39:58;;;;;;;5.70;1.60;;;5.80;86.70;;;;;;10038600;28;20120;-62
2022/02/25 08:44:48;;;;;;;6.25;1.75;;;5.90;86.80;;;;;;10033113;28;20696;-63
2022/02/25 08:49:39;;;;;;;3.35;1.02;;;5.80;86.70;;;;;;10029172;28;20044;-62
2022/02/25 08:54:30;;;;;;;5.22;1.60;;;5.70;86.60;;;;;;10031491;28;20037;-64
2022/02/25 08:59:21;;;;;;;3.80;1.13;;;5.70;86.70;;;;;;10037404;28;20033;-69
2022/02/25 09:04:13;;;;;;;1.27;1.10;;;5.80;86.20;;;;;;10047023;28;20441;-65
2022/02/25 09:09:04;;;;;;;5.80;1.15;;;6.00;86.30;;;;;;10046089;28;20041;-64
2022/02/25 09:13:55;;;;;;;3.05;1.20;;;6.00;86.30;;;;;;10039392;28;20555;-64
2022/02/25 09:18:45;;;;;;;1.63;1.50;;;6.00;86.10;;;;;;10044802;28;20026;-64
2022/02/25 09:23:36;;;;;;;3.08;1.23;;;6.20;86.10;;;;;;10044055;28;20037;-64
2022/02/25 09:28:27;;;;;;;6.43;2.60;;;6.30;85.80;;;;;;10044590;28;20037;-63
2022/02/25 09:33:18;;;;;;;2.47;1.73;;;6.20;85.90;;;;;;10045215;28;20021;-64
2022/02/25 09:38:09;;;;;;;6.90;1.90;;;6.30;85.50;;;;;;10048253;28;20398;-63
2022/02/25 09:43:00;;;;;;;5.25;1.77;;;6.40;85.50;;;;;;10046882;28;20689;-63
2022/02/25 09:47:51;;;;;;;2.88;1.50;;;6.50;85.40;;;;;;10045196;28;20037;-63
2022/02/25 09:52:43;;;;;;;5.13;2.10;;;6.90;85.30;;;;;;10041307;28;20024;-62
2022/02/25 09:57:33;;;;;;;1.75;0.93;;;7.30;84.60;;;;;;10045245;28;20035;-63
2022/02/25 10:02:43;;;;;;;4.28;1.63;;;7.60;84.20;;;;;;10043462;28;20026;-63
2022/02/25 10:07:36;;;;;;;1.80;0.77;;;7.50;84.00;;;;;;10046954;28;20844;-63
2022/02/25 10:12:27;;;;;;;4.00;1.50;;;7.40;83.60;;;;;;10046691;28;20042;-60
2022/02/25 10:17:23;;;;;;;2.05;1.00;;;7.60;83.80;;;;;;10045403;28;20056;-63
2022/02/25 10:22:23;;;;;;;6.55;1.02;;;7.80;83.10;;;;;;10044976;28;20021;-61
2022/02/25 10:27:23;;;;;;;2.45;1.45;;;7.90;82.70;;;;;;10044854;28;20506;-63
2022/02/25 10:32:14;;;;;;;2.47;1.02;;;7.80;82.90;;;;;;10047585;28;20274;-63
2022/02/25 10:37:04;;;;;;;10.07;2.13;;;8.00;82.60;;;;;;10062391;28;20045;-62
2022/02/25 10:42:13;;;;;;;4.38;1.35;;;8.20;82.40;;;;;;10047000;28;20094;-61
2022/02/25 10:47:23;;;;;;;4.63;1.58;;;8.10;81.30;;;;;;10046216;28;20068;-63
2022/02/25 10:52:20;;;;;;;5.03;1.15;;;8.50;81.40;;;;;;10037395;28;20026;-63
2022/02/25 10:57:12;;;;;;;5.50;1.13;;;8.60;80.80;;;;;;10043323;28;20025;-64
2022/02/25 11:02:20;;;;;;;4.30;0.93;;;8.60;80.00;;;;;;10043781;28;20096;-63
2022/02/25 11:07:11;;;;;;;5.80;1.45;;;8.40;78.80;;;;;;10043180;28;20037;-62
2022/02/25 11:12:02;;;;;;;7.10;1.77;;;8.40;79.00;;;;;;10042004;28;20090;-62
2022/02/25 11:16:53;;;;;;;4.38;1.90;;;8.40;78.20;;;;;;10047857;28;20026;-64
2022/02/25 11:21:44;;;;;;;4.20;1.10;;;8.40;77.50;;;;;;10046192;28;20022;-62
2022/02/25 11:26:34;;;;;;;6.00;1.38;;;8.60;76.70;;;;;;10045429;28;20060;-64
2022/02/25 11:31:30;;;;;;;3.15;0.95;;;8.90;75.80;;;;;;10046511;28;20026;-63
2022/02/25 11:36:44;;;;;;;5.68;1.10;;;9.10;74.20;;;;;;10050827;28;20496;-64
2022/02/25 11:41:51;;;;;;;5.25;1.35;;;9.00;72.00;;;;;;10050246;28;20025;-62
2022/02/25 11:46:42;;;;;;;3.10;1.38;;;9.40;74.50;;;;;;10056672;28;20127;-62
2022/02/25 11:51:51;;;;;;;6.80;1.27;;;9.30;73.70;;;;;;10044321;28;20112;-68
2022/02/25 11:56:42;;;;;;;2.45;0.90;;;9.20;73.30;;;;;;10064962;28;20030;-66
2022/02/25 12:01:33;;;;;;;3.55;0.93;;;9.10;72.70;;;;;;10054136;28;20030;-69
2022/02/25 12:06:28;;;;;;;1.55;0.60;;;9.00;72.30;;;;;;10052795;28;20562;-65
2022/02/25 12:11:31;;;;;;;5.83;1.90;;;8.80;72.50;;;;;;10052188;28;20029;-65
2022/02/25 12:16:27;;;;;;;1.98;1.77;;;8.80;72.60;;;;;;10052168;28;20037;-65
2022/02/25 12:21:20;;;;;;;1.45;0.68;;;8.80;72.70;;;;;;10051521;28;20467;-65
2022/02/25 12:26:11;;;;;;;2.80;0.70;;;8.90;72.10;;;;;;10053126;28;20030;-66
2022/02/25 12:31:13;;;;;;;3.60;0.90;;;8.90;71.60;;;;;;10053273;28;20021;-63
2022/02/25 12:36:13;;;;;;;1.90;1.00;;;8.70;71.80;;;;;;10050806;28;20484;-68
2022/02/25 12:41:14;;;;;;;5.97;1.35;;;8.70;72.00;;;;;;10053477;28;21244;-65
2022/02/25 12:46:04;;;;;;;4.22;0.90;;;8.70;71.60;;;;;;10049311;28;20408;-64
2022/02/25 12:50:58;;;;;;;2.30;0.93;;;8.60;71.60;;;;;;10050015;28;20017;-66
2022/02/25 12:55:59;;;;;;;6.95;1.23;;;8.50;71.70;;;;;;10064876;28;20033;-65
2022/02/25 13:00:57;;;;;;;7.68;1.88;;;8.60;71.50;;;;;;10050105;28;20042;-63
2022/02/25 13:05:54;;;;;;;2.28;0.73;;;8.60;71.40;;;;;;10044717;28;20045;-64
2022/02/25 13:10:59;;;;;;;2.95;1.02;;;8.70;71.40;;;;;;10046375;28;20025;-65
2022/02/25 13:16:08;;;;;;;5.22;1.60;;;8.60;71.10;;;;;;10047741;28;20042;-64
2022/02/25 13:21:08;;;;;;;5.82;1.13;;;8.70;71.40;;;;;;10045543;28;20699;-67
2022/02/25 13:26:02;;;;;;;4.65;1.00;;;8.70;71.40;;;;;;10045863;28;20707;-64
2022/02/25 13:30:53;;;;;;;1.33;0.93;;;8.90;71.50;;;;;;10044795;28;20195;-65
2022/02/25 13:35:55;;;;;;;3.63;0.80;;;9.00;71.50;;;;;;10046488;28;20087;-68
2022/02/25 13:40:49;;;;;;;4.13;1.33;;;9.20;71.50;;;;;;10046160;28;20025;-65
2022/02/25 13:45:39;;;;;;;5.00;1.48;;;9.50;71.50;;;;;;10044133;28;20049;-65
2022/02/25 13:55:40;;;;;;;3.00;1.10;;;10.00;71.50;;;;;;10043016;28;20079;-64
2022/02/25 14:00:32;;;;;;;1.45;0.70;;;9.60;71.20;;;;;;10044441;28;20059;-66
2022/02/25 14:05:36;;;;;;;3.53;1.08;;;9.30;71.70;;;;;;10045859;28;20042;-65
2022/02/25 14:10:35;;;;;;;3.63;0.80;;;9.00;71.70;;;;;;10044570;28;20029;-66
2022/02/25 14:15:27;;;;;;;1.20;1.10;;;8.70;72.00;;;;;;10043477;28;20589;-65
2022/02/25 14:20:25;;;;;;;4.32;1.20;;;8.40;72.40;;;;;;10043424;28;20049;-65
2022/02/25 14:25:22;;;;;;;3.03;0.70;;;7.30;74.70;;;;;;10045188;28;20132;-65
2022/02/25 14:30:13;;;;;;;2.65;1.20;;;6.60;76.70;;;;;;10047445;28;20112;-66
2022/02/25 14:35:26;;;;;;;1.45;0.65;;;6.20;77.80;;;;;;10045177;28;20142;-63
2022/02/25 14:40:18;;;;;;;3.20;1.33;;;6.40;80.70;;;;;;10044157;28;20025;-66
2022/02/25 14:45:09;;;;;;;4.40;1.63;;;6.70;79.70;;;;;;10033617;28;20030;-63
2022/02/25 14:50:00;;;;;;;1.88;0.82;;;9.10;77.30;;;;;;10044680;28;20029;-65
2022/02/25 14:54:50;;;;;;;2.83;1.25;;;9.80;74.80;;;;;;10043150;28;20431;-64
2022/02/25 14:59:49;;;;;;;5.28;1.35;;;12.70;73.40;;;;;;10042634;28;20022;-65
2022/02/25 15:04:40;;;;;;;2.63;0.80;;;15.10;70.40;;;;;;10043522;28;20408;-66
2022/02/25 15:09:31;;;;;;;2.08;0.75;;;10.60;77.10;;;;;;10046599;28;20042;-65
2022/02/25 15:14:23;;;;;;;2.13;0.77;;;8.90;81.10;;;;;;10052038;28;20556;-64
2022/02/25 15:19:14;;;;;;;3.08;1.00;;;13.20;73.70;;;;;;10053127;28;20568;-66
2022/02/25 15:24:05;;;;;;;2.72;1.23;;;14.70;69.40;;;;;;10052111;28;20308;-63
2022/02/25 15:28:56;;;;;;;2.25;1.30;;;11.40;75.20;;;;;;10040868;28;20041;-64
2022/02/25 15:33:46;;;;;;;2.33;0.65;;;10.20;77.80;;;;;;10043274;28;20532;-65
2022/02/25 15:38:37;;;;;;;3.63;1.20;;;9.20;80.00;;;;;;10037703;28;20045;-64
2022/02/25 15:43:28;;;;;;;2.15;1.15;;;9.70;78.90;;;;;;10040673;28;20084;-65
2022/02/25 15:48:19;;;;;;;3.50;0.98;;;10.00;77.60;;;;;;10047258;28;20097;-64
2022/02/25 15:53:10;;;;;;;1.65;0.98;;;10.80;76.10;;;;;;10041035;28;20288;-64
2022/02/25 15:58:00;;;;;;;3.33;1.00;;;11.50;75.10;;;;;;10041992;28;20080;-66
2022/02/25 16:02:51;;;;;;;4.10;1.17;;;11.00;75.60;;;;;;10038978;28;20061;-65
2022/02/25 16:07:42;;;;;;;5.30;1.05;;;10.70;76.40;;;;;;10048029;28;20046;-66
2022/02/25 16:12:33;;;;;;;3.60;1.60;;;10.70;77.10;;;;;;10044140;28;20038;-64
2022/02/25 16:17:25;;;;;;;3.03;0.90;;;13.10;73.00;;;;;;10036081;28;20061;-65
2022/02/25 16:22:16;;;;;;;1.88;0.90;;;14.40;70.30;;;;;;10040265;28;20018;-66
2022/02/25 16:27:07;;;;;;;2.33;1.33;;;12.50;72.90;;;;;;10037687;28;20060;-65
2022/02/25 16:31:58;;;;;;;1.83;1.00;;;10.60;77.20;;;;;;10044512;28;20018;-64
2022/02/25 16:36:49;;;;;;;3.47;1.85;;;9.70;78.60;;;;;;10039537;28;20103;-65
2022/02/25 16:41:41;;;;;;;3.78;1.55;;;9.10;79.50;;;;;;10042116;28;20911;-64
2022/02/25 16:46:32;;;;;;;1.88;0.85;;;8.80;79.10;;;;;;10040103;28;20200;-65
2022/02/25 16:51:23;;;;;;;3.78;1.23;;;8.50;79.30;;;;;;10045423;28;20229;-67
2022/02/25 16:56:13;;;;;;;2.30;1.00;;;8.30;79.60;;;;;;10042817;28;20033;-64
2022/02/25 17:01:04;;;;;;;1.85;1.05;;;8.10;79.70;;;;;;10036481;28;20311;-63
2022/02/25 17:05:55;;;;;;;2.97;1.00;;;8.00;80.00;;;;;;10045702;28;20041;-63
2022/02/25 17:10:45;;;;;;;5.07;1.70;;;8.00;79.60;;;;;;10036623;28;20205;-64
2022/02/25 17:15:36;;;;;;;2.67;0.88;;;7.60;79.80;;;;;;10044122;28;20045;-66
2022/02/25 17:20:27;;;;;;;3.78;1.02;;;7.60;80.10;;;;;;10041366;28;20037;-63
2022/02/25 17:25:18;;;;;;;3.30;0.95;;;7.50;80.30;;;;;;10039441;28;20046;-65
2022/02/25 17:30:09;;;;;;;4.40;1.58;;;7.50;80.30;;;;;;10042502;28;20033;-63
2022/02/25 17:35:02;;;;;;;3.47;1.05;;;7.50;80.20;;;;;;10040177;28;20434;-64
2022/02/25 17:39:54;;;;;;;2.13;0.90;;;7.50;80.30;;;;;;10038299;28;20033;-64
2022/02/25 17:44:45;;;;;;;5.07;1.55;;;7.50;80.50;;;;;;10041888;28;20037;-65
2022/02/25 17:49:37;;;;;;;3.45;1.63;;;7.50;80.90;;;;;;10041688;28;20040;-64
2022/02/25 17:54:27;;;;;;;3.60;1.85;;;7.60;80.90;;;;;;10039588;28;20435;-65
2022/02/25 17:59:19;;;;;;;5.50;2.25;;;7.60;80.90;;;;;;10032569;28;20041;-67
2022/02/25 18:04:10;;;;;;;5.05;1.45;;;7.60;81.10;;;;;;10040998;28;20022;-66
2022/02/25 18:09:00;;;;;;;3.80;2.20;;;7.60;81.20;;;;;;10041975;28;20470;-65
2022/02/25 18:13:51;;;;;;;4.15;1.52;;;7.70;81.30;;;;;;10035379;28;20491;-67
2022/02/25 18:18:42;;;;;;;3.05;1.30;;;7.80;81.30;;;;;;10038249;28;20032;-69
2022/02/25 18:23:35;;;;;;;3.17;1.45;;;7.80;81.60;;;;;;10041139;28;20105;-64
2022/02/25 18:28:26;;;;;;;3.92;1.55;;;7.70;81.90;;;;;;10036572;28;20044;-64
2022/02/25 18:33:17;;;;;;;3.00;1.67;;;7.60;82.20;;;;;;10037469;28;20444;-64
2022/02/25 18:38:07;;;;;;;3.72;1.90;;;7.50;82.70;;;;;;10036654;28;20180;-63
2022/02/25 18:42:59;;;;;;;5.10;0.90;;;7.50;82.50;;;;;;10042287;28;20205;-64
2022/02/25 18:47:53;;;;;;;3.17;1.02;;;7.50;82.80;;;;;;10044301;28;20515;-64
2022/02/25 18:52:43;;;;;;;3.58;1.83;;;7.50;83.00;;;;;;10047895;28;20022;-66
2022/02/25 18:57:34;;;;;;;2.90;1.27;;;6.80;83.60;;;;;;10040190;28;20403;-63
2022/02/25 19:02:25;;;;;;;2.97;1.10;;;5.70;85.80;;;;;;10049038;28;20424;-65
2022/02/25 19:07:15;;;;;;;1.38;0.90;;;5.10;87.60;;;;;;10051228;28;20083;-64
2022/02/25 19:12:08;;;;;;;1.02;0.50;;;4.80;88.90;;;;;;10048310;28;20073;-66
2022/02/25 19:17:00;;;;;;;2.20;0.50;;;4.90;88.20;;;;;;10048993;28;20120;-64
2022/02/25 19:21:52;;;;;;;3.58;0.68;;;5.10;87.30;;;;;;10049224;28;20030;-64
2022/02/25 19:26:43;;;;;;;1.40;0.82;;;5.40;86.60;;;;;;10041306;28;20540;-64
2022/02/25 19:31:34;;;;;;;3.40;0.90;;;5.50;86.50;;;;;;10051206;28;20594;-68
2022/02/25 19:36:25;;;;;;;2.33;0.82;;;5.30;86.40;;;;;;10050278;28;20176;-68
2022/02/25 19:41:16;;;;;;;1.30;0.95;;;5.20;87.00;;;;;;10050076;28;20021;-66
2022/02/25 19:46:06;;;;;;;1.30;0.90;;;5.30;87.00;;;;;;10043694;28;20033;-66
2022/02/25 19:50:57;;;;;;;1.70;0.73;;;5.30;86.90;;;;;;10036897;28;20447;-65
2022/02/25 19:55:48;;;;;;;1.20;0.50;;;5.20;87.30;;;;;;10051221;28;20087;-67
2022/02/25 20:00:38;;;;;;;2.15;0.60;;;5.20;87.60;;;;;;10047769;28;20159;-66
2022/02/25 20:05:29;;;;;;;4.68;0.82;;;5.10;88.00;;;;;;10050818;28;20044;-66
2022/02/25 20:10:20;;;;;;;2.92;0.90;;;4.90;88.80;;;;;;10047355;28;20021;-66
2022/02/25 20:15:11;;;;;;;1.55;1.13;;;4.90;88.70;;;;;;10048485;28;20530;-66
2022/02/25 20:20:03;;;;;;;2.28;1.15;;;4.80;88.60;;;;;;10049557;28;20025;-66
2022/02/25 20:24:55;;;;;;;4.40;1.65;;;4.90;88.70;;;;;;10031494;28;20026;-65
2022/02/25 20:29:45;;;;;;;3.35;1.67;;;4.80;88.90;;;;;;10049582;28;20025;-68
2022/02/25 20:34:38;;;;;;;3.83;1.80;;;4.70;89.10;;;;;;10050112;28;20037;-68
2022/02/25 20:39:29;;;;;;;5.35;1.88;;;4.70;89.60;;;;;;10042805;28;20029;-66
2022/02/25 20:44:19;;;;;;;1.63;1.10;;;4.80;89.20;;;;;;10056066;28;20025;-65
2022/02/25 20:49:10;;;;;;;1.73;1.10;;;4.80;89.50;;;;;;10048662;28;20033;-65
2022/02/25 20:54:01;;;;;;;2.03;0.90;;;4.70;89.80;;;;;;10041515;28;20041;-69
2022/02/25 20:58:52;;;;;;;1.88;1.38;;;4.60;90.00;;;;;;10045615;28;20038;-70
2022/02/25 21:03:42;;;;;;;2.00;1.15;;;4.60;90.00;;;;;;10050724;28;20021;-64
2022/02/25 21:08:33;;;;;;;2.83;1.27;;;4.70;90.20;;;;;;10046151;28;20038;-65
2022/02/25 21:13:26;;;;;;;2.47;1.05;;;4.60;90.00;;;;;;10047919;28;20065;-67
2022/02/25 21:18:17;;;;;;;2.60;1.48;;;4.60;90.00;;;;;;10049042;28;20080;-66
2022/02/25 21:23:07;;;;;;;2.45;1.13;;;4.50;90.30;;;;;;10043750;28;20172;-67
2022/02/25 21:27:59;;;;;;;8.25;1.23;;;4.40;90.30;;;;;;10048848;28;20049;-70
2022/02/25 21:32:50;;;;;;;1.98;1.50;;;4.40;90.40;;;;;;10049388;28;20522;-72
2022/02/25 21:37:41;;;;;;;6.50;2.90;;;4.40;90.40;;;;;;10048784;28;20370;-74
2022/02/25 21:42:32;;;;;;;5.70;2.10;;;4.40;90.30;;;;;;10046495;28;20036;-72
2022/02/25 21:47:22;;;;;;;4.18;2.25;;;4.30;90.40;;;;;;10039465;28;20064;-64
2022/02/25 21:52:13;;;;;;;4.30;2.05;;;4.30;90.60;;;;;;10044309;28;20018;-62
2022/02/25 21:57:04;;;;;;;3.72;2.05;;;4.30;90.50;;;;;;10042313;28;20060;-65
2022/02/25 22:01:55;;;;;;;3.05;1.60;;;4.30;90.60;;;;;;10047459;28;20030;-64
2022/02/25 22:06:46;;;;;;;2.17;1.38;;;4.30;90.60;;;;;;10040685;28;20041;-63
2022/02/25 22:11:37;;;;;;;1.40;0.80;;;4.20;90.70;;;;;;10063575;28;20025;-63
2022/02/25 22:16:29;;;;;;;2.50;1.30;;;4.10;90.90;;;;;;10044872;28;20030;-63
2022/02/25 22:21:19;;;;;;;2.80;1.60;;;4.20;90.80;;;;;;10042361;28;20087;-64
2022/02/25 22:26:10;;;;;;;2.03;1.70;;;4.10;91.00;;;;;;10046068;28;20598;-66
2022/02/25 22:31:01;;;;;;;2.40;1.50;;;4.20;90.90;;;;;;10043462;28;20033;-66
2022/02/25 22:35:52;;;;;;;2.25;1.27;;;4.30;90.90;;;;;;10043469;28;20033;-66
2022/02/25 22:40:43;;;;;;;2.80;1.27;;;4.30;90.90;;;;;;10035122;28;20033;-66
2022/02/25 22:45:34;;;;;;;1.20;1.10;;;4.10;91.00;;;;;;10045249;28;20038;-67
2022/02/25 23:00:43;;;;;;;1.45;1.30;;;4.10;91.20;;;;;;10040900;28;20037;-67
2022/02/25 23:10:44;;;;;;;3.00;1.17;;;3.90;91.30;;;;;;10035726;28;20087;-68
2022/02/25 23:15:35;;;;;;;2.88;1.55;;;4.00;91.30;;;;;;10034900;28;20053;-66
2022/02/25 23:20:26;;;;;;;1.90;1.67;;;4.00;91.30;;;;;;10043085;28;20034;-67
2022/02/25 23:25:17;;;;;;;2.22;1.92;;;4.10;91.30;;;;;;10043193;28;20038;-67
2022/02/25 23:30:09;;;;;;;2.45;1.55;;;4.10;91.40;;;;;;10048732;28;20124;-66
2022/02/25 23:35:00;;;;;;;3.33;2.10;;;4.00;91.60;;;;;;10047623;28;20384;-68
2022/02/25 23:39:50;;;;;;;2.55;1.70;;;4.00;91.50;;;;;;10040525;28;20033;-71
2022/02/25 23:44:41;;;;;;;4.10;2.08;;;4.00;91.50;;;;;;10040899;28;20423;-67
2022/02/25 23:49:32;;;;;;;2.80;1.73;;;3.80;91.80;;;;;;10042460;28;20052;-68
2022/02/25 23:54:23;;;;;;;3.10;2.00;;;3.90;91.80;;;;;;10044880;28;20128;-70
2022/02/25 23:59:18;;;;;;;3.78;2.45;;;3.90;91.70;;;;;;10046710;28;20590;-63
